Latest Coastal Weather Observations for Cape Sorell

IDT60701

Issued at 10:22 pm EDT Saturday 25 February 2017 (issued every 10 minutes, with the page automatically refreshed every 10 minutes)

About coastal observations | Map of coastal stations | Coastal observations for TAS | Marine services | Other Formats
Station Details ID: 097000 Name: CAPE SORELL Lat: -42.20 Lon: 145.17 Height: 19.3 m
Data from the previous 72 hours. | See also: Recent months at Cape Sorell
Date/Time
EDT
Temp
°C
Wind Pressure Rain since
9am
mm
Weather Cloud Vis
km
Sea
Height
m
Swell
Dir  Spd
kts
Gust
kts
hPa Trend Height
m
Period
s
Dir
25/10:00pm 12.0 SSE 8 11 1026.8 - 0.0 - - - - - - -
25/09:30pm 12.7 S 11 15 1026.6 - 0.0 - - - - - - -
25/09:00pm 13.4 S 12 15 1026.4 - 0.0 - - - - - - -
25/08:30pm 13.5 S 14 16 1026.4 - 0.0 - - - - - - -
25/08:00pm 13.6 SSW 15 17 1025.9 - 0.0 - - - - - - -
25/07:30pm 14.2 SSW 16 20 1025.7 - 0.0 - - - - - - -
25/07:00pm 14.6 SSW 15 18 1025.6 - 0.0 - - - - - - -
25/06:30pm 14.9 SSW 15 19 1025.4 - 0.0 - - - - - - -
25/06:00pm 15.1 SSW 16 19 1025.3 - 0.0 - - - - - - -
25/05:30pm 15.2 SSW 16 18 1025.3 - 0.0 - - - - - - -
25/05:00pm 15.3 SSW 15 19 1025.4 - 0.0 - - - - - - -
25/04:30pm 15.5 SSW 16 19 1025.7 - 0.0 - - - - - - -
25/04:00pm 15.8 SSW 17 20 1026.3 - 0.0 - - - - - - -
25/03:30pm 15.8 SSW 18 21 1026.3 - 0.0 - - - - - - -
25/03:00pm 16.0 SSW 16 19 1026.4 - 0.0 - - - - - - -
25/02:30pm 16.4 SSW 14 16 1026.8 - 0.0 - - - - - - -
25/02:00pm 16.7 SSW 13 15 1026.8 - 0.0 - - - - - - -
25/01:30pm 16.6 SSW 12 15 1027.0 - 0.0 - - - - - - -
25/01:00pm 16.4 SSW 11 14 1027.2 - 0.0 - - - - - - -
25/12:30pm 16.1 SSW 9 12 1027.2 - 0.0 - - - - - - -
25/12:00pm 16.5 SSW 8 10 1027.4 - 0.0 - - - - - - -
25/11:30am 16.6 ESE 6 9 1027.5 - 0.0 - - - - - - -
25/11:00am 15.5 ESE 9 13 1027.5 - 0.0 - - - - - - -
25/10:30am 15.2 ESE 8 12 1027.7 - 0.0 - - - - - - -
25/10:00am 13.6 ESE 8 11 1027.6 - 0.0 - - - - - - -
25/09:30am 13.6 ESE 7 10 1027.5 - 0.0 - - - - - - -
25/09:00am 12.7 ESE 7 11 1027.8 - 0.0 - - - - - - -
25/08:30am 11.9 ESE 7 9 1027.7 - 0.0 - - - - - - -
25/08:00am 10.9 ESE 6 8 1027.6 - 0.0 - - - - - - -
25/07:30am 9.8 ESE 7 9 1027.4 - 0.0 - - - - - - -
25/07:00am 9.2 ESE 8 9 1027.3 - 0.0 - - - - - - -
25/06:30am 9.0 ESE 7 8 1026.9 - 0.0 - - - - - - -
25/06:00am 9.6 ESE 8 9 1026.7 - 0.0 - - - - - - -
25/05:30am 9.8 SE 6 7 1026.4 - 0.0 - - - - - - -
25/05:00am 10.4 ESE 7 8 1026.3 - 0.0 - - - - - - -
25/04:30am 10.7 E 6 8 1026.2 - 0.0 - - - - - - -
25/04:00am 10.3 ESE 7 8 1026.2 - 0.0 - - - - - - -
25/03:30am 10.3 SE 4 7 1026.2 - 0.0 - - - - - - -
25/03:00am 10.7 SE 5 7 1026.3 - 0.0 - - - - - - -
25/02:30am 10.9 SE 6 8 1026.4 - 0.0 - - - - - - -
25/02:00am 10.8 SSE 5 8 1026.6 - 0.0 - - - - - - -
25/01:30am 10.5 SE 5 7 1026.7 - 0.0 - - - - - - -
25/01:00am 10.3 SE 6 7 1026.7 - 0.0 - - - - - - -
25/12:30am 10.6 SSE 6 8 1026.6 - 0.0 - - - - - - -
25/12:00am 11.4 S 6 9 1026.6 - 0.0 - - - - - - -
 
Date/Time
EDT
Temp
°C
Wind Pressure Rain since
9am
mm
Weather Cloud Vis
km
Sea
Height
m
Swell
Dir  Spd
kts
Gust
kts
hPa Trend Height
m
Period
s
Dir
24/11:30pm 11.5 SSE 8 12 1026.5 - 0.0 - - - - - - -
24/11:00pm 13.0 S 12 15 1026.3 - 0.0 - - - - - - -
24/10:30pm 12.8 S 8 11 1026.4 - 0.0 - - - - - - -
24/10:00pm 12.6 SSE 6 8 1026.3 - 0.0 - - - - - - -
24/09:30pm 13.7 S 13 16 1025.7 - 0.0 - - - - - - -
24/09:00pm 13.5 SSW 16 20 1025.2 - 0.0 - - - - - - -
24/08:30pm 13.8 SSW 18 21 1024.6 - 0.0 - - - - - - -
24/08:00pm 13.8 SSW 20 23 1024.2 - 0.0 - - - - - - -
24/07:30pm 14.4 SSW 18 21 1024.1 - 0.0 - - - - - - -
24/07:00pm 14.7 SSW 19 23 1023.8 - 0.0 - - - - - - -
24/06:30pm 14.8 SSW 19 23 1023.6 - 0.0 - - - - - - -
24/06:00pm 15.0 SSW 18 23 1023.3 - 0.0 - - - - - - -
24/05:30pm 15.2 SW 12 15 1023.2 - 0.0 - - - - - - -
24/05:00pm 16.7 SW 13 15 1023.0 - 0.0 - - - - - - -
24/04:30pm 16.8 SW 12 15 1022.9 - 0.0 - - - - - - -
24/04:00pm 16.1 SSW 11 14 1022.9 - 0.0 - - - - - - -
24/03:30pm 16.0 SSW 13 16 1022.9 - 0.0 - - - - - - -
24/03:00pm 15.6 SW 19 23 1023.0 - 0.0 - - - - - - -
24/02:30pm 15.6 SW 24 28 1022.6 - 0.0 - - - - - - -
24/02:21pm 17.1 WSW 16 28 1022.6 - 0.0 - - - - - - -
24/02:00pm 17.8 WSW 13 18 1022.8 - 0.0 - - - - - - -
24/01:30pm 17.4 WSW 14 21 1022.8 - 0.0 - - - - - - -
24/01:00pm 17.3 WSW 14 19 1022.7 - 0.0 - - - - - - -
24/12:30pm 17.3 W 14 19 1022.6 - 0.0 - - - - - - -
24/12:00pm 17.3 WNW 9 13 1022.9 - 0.0 - - - - - - -
24/11:30am 17.1 NNW 5 7 1023.0 - 0.0 - - - - - - -
24/11:00am 14.4 W 7 13 1023.2 - 0.0 - - - - - - -
24/10:30am 15.9 NW 7 13 1022.9 - 0.0 - - - - - - -
24/10:00am 16.1 NW 6 8 1022.5 - 0.0 - - - - - - -
24/09:30am 15.1 W 8 12 1022.5 - 0.0 - - - - - - -
24/09:00am 14.5 WNW 9 15 1022.4 - 1.2 - - - - - - -
24/08:30am 14.7 W 10 13 1022.3 - 1.2 - - - - - - -
24/08:00am 14.5 W 6 8 1021.9 - 1.2 - - - - - - -
24/07:30am 13.7 WNW 5 6 1021.6 - 1.2 - - - - - - -
24/07:00am 13.4 W 10 20 1021.3 - 1.2 - - - - - - -
24/06:43am 14.5 WNW 10 19 1020.9 - 1.2 - - - - - - -
24/06:30am 13.9 NW 5 8 1020.9 - 1.2 - - - - - - -
24/06:00am 13.6 WNW 5 8 1020.7 - 1.2 - - - - - - -
24/05:30am 13.9 WSW 15 19 1020.5 - 1.2 - - - - - - -
24/05:00am 14.3 WSW 15 18 1020.2 - 1.2 - - - - - - -
24/04:30am 14.3 W 7 11 1020.4 - 1.2 - - - - - - -
24/04:00am 14.1 W 8 12 1020.5 - 1.2 - - - - - - -
24/03:30am 14.3 WNW 9 13 1020.7 - 1.2 - - - - - - -
24/03:00am 14.0 NNW 5 8 1020.6 - 1.2 - - - - - - -
24/02:30am 13.6 NNW 4 5 1020.7 - 1.2 - - - - - - -
24/02:00am 12.9 NNW 4 5 1020.7 - 1.2 - - - - - - -
24/01:30am 12.9 WNW 4 7 1021.0 - 1.2 - - - - - - -
24/01:00am 13.0 WNW 5 8 1021.2 - 1.2 - - - - - - -
24/12:30am 13.3 W 6 9 1021.2 - 1.2 - - - - - - -
24/12:00am 13.5 WSW 8 11 1021.2 - 1.2 - - - - - - -
 
Date/Time
EDT
Temp
°C
Wind Pressure Rain since
9am
mm
Weather Cloud Vis
km
Sea
Height
m
Swell
Dir  Spd
kts
Gust
kts
hPa Trend Height
m
Period
s
Dir
23/11:30pm 13.7 WSW 9 12 1021.2 - 1.2 - - - - - - -
23/11:00pm 13.9 WSW 11 13 1021.2 - 1.2 - - - - - - -
23/10:30pm 14.0 WSW 10 13 1021.0 - 1.2 - - - - - - -
23/10:00pm 13.7 WSW 9 13 1020.9 - 1.2 - - - - - - -
23/09:30pm 13.6 WSW 13 16 1020.3 - 1.2 - - - - - - -
23/09:00pm 13.4 SW 13 15 1019.7 - 1.2 - - - - - - -
23/08:30pm 13.2 SW 12 15 1019.0 - 1.2 - - - - - - -
23/08:00pm 13.4 SW 15 18 1018.7 - 1.2 - - - - - - -
23/07:30pm 13.4 SW 16 20 1018.2 - 1.2 - - - - - - -
23/07:00pm 13.8 SW 20 22 1017.7 - 1.2 - - - - - - -
23/06:30pm 14.3 SW 20 23 1017.2 - 1.2 - - - - - - -
23/06:00pm 15.1 SW 18 21 1016.9 - 1.2 - - - - - - -
23/05:30pm 16.0 WSW 16 18 1016.5 - 1.2 - - - - - - -
23/05:00pm 17.3 WNW 8 11 1016.2 - 1.2 - - - - - - -
23/04:30pm 17.5 W 9 11 1015.8 - 1.2 - - - - - - -
23/04:00pm 18.0 WNW 8 10 1015.4 - 1.2 - - - - - - -
23/03:30pm 18.3 WNW 8 10 1015.3 - 1.2 - - - - - - -
23/03:00pm 18.0 NNW 6 8 1015.3 - 1.0 - - - - - - -
23/02:30pm 17.3 WNW 11 13 1015.2 - 1.0 - - - - - - -
23/02:00pm 17.6 WNW 11 14 1014.8 - 1.0 - - - - - - -
23/01:30pm 16.6 NW 11 14 1014.6 - 1.0 - - - - - - -
23/01:00pm 16.9 WNW 14 17 1014.3 - 1.0 - - - - - - -
23/12:30pm 15.5 WNW 15 19 1013.8 - 1.0 - - - - - - -
23/12:00pm 16.1 WNW 14 18 1013.5 - 0.0 - - - - - - -
23/11:30am 16.8 NW 13 20 1013.2 - 0.0 - - - - - - -
23/11:00am 17.7 NW 13 15 1012.4 - 0.0 - - - - - - -
23/10:30am 16.7 NW 14 19 1012.1 - 0.0 - - - - - - -
23/10:00am 16.6 NW 13 19 1011.7 - 0.0 - - - - - - -
23/09:30am 16.1 NNW 17 21 1011.0 - 0.0 - - - - - - -
23/09:00am 16.1 NNW 17 21 1010.7 - 0.6 - - - - - - -
23/08:30am 16.1 NNW 19 26 1010.0 - 0.6 - - - - - - -
23/08:00am 16.1 NNW 22 29 1009.2 - 0.6 - - - - - - -
23/07:30am 15.9 NNW 22 30 1008.5 - 0.6 - - - - - - -
23/07:00am 15.9 N 27 32 1007.7 - 0.6 - - - - - - -
23/06:30am 16.0 NNW 21 29 1007.2 - 0.6 - - - - - - -
23/06:00am 17.1 N 26 33 1007.1 - 0.0 - - - - - - -
23/05:30am 17.4 N 20 26 1006.9 - 0.0 - - - - - - -
23/05:00am 17.7 N 24 30 1006.5 - 0.0 - - - - - - -
23/04:44am 17.8 N 22 35 1006.3 - 0.0 - - - - - - -
23/04:30am 17.5 N 20 25 1006.4 - 0.0 - - - - - - -
23/04:00am 17.7 N 22 27 1006.3 - 0.0 - - - - - - -
23/03:30am 18.1 N 25 30 1006.2 - 0.0 - - - - - - -
23/03:00am 18.3 NNW 20 26 1006.5 - 0.0 - - - - - - -
23/02:30am 19.1 N 23 29 1006.1 - 0.0 - - - - - - -
23/02:00am 18.7 NNW 17 22 1006.0 - 0.0 - - - - - - -
23/01:30am 19.6 N 20 30 1005.4 - 0.0 - - - - - - -
23/01:27am 19.3 N 19 30 1005.4 - 0.0 - - - - - - -
23/01:00am 18.3 N 15 20 1005.6 - 0.0 - - - - - - -
23/12:30am 18.5 N 16 19 1005.7 - 0.0 - - - - - - -
23/12:00am 19.4 NNW 16 21 1006.0 - 0.0 - - - - - - -
 
Date/Time
EDT
Temp
°C
Wind Pressure Rain since
9am
mm
Weather Cloud Vis
km
Sea
Height
m
Swell
Dir  Spd
kts
Gust
kts
hPa Trend Height
m
Period
s
Dir
22/11:36pm 21.1 NNW 18 31 1005.9 - 0.0 - - - - - - -
22/11:30pm 21.8 NNW 15 28 1005.3 - 0.0 - - - - - - -
22/11:27pm 20.3 N 12 28 1006.1 - 0.0 - - - - - - -
22/11:00pm 21.3 NE 13 17 1004.7 - 0.0 - - - - - - -
22/10:30pm 20.9 NE 18 22 1004.9 - 0.0 - - - - - - -

Other Formats:

Comma delimited format used in spreadsheet applications
http://www.bom.gov.au/fwo/IDT60701/IDT60701.94974.axf

JavaScript Object Notation format (JSON) in row-major order
http://www.bom.gov.au/fwo/IDT60701/IDT60701.94974.json